Time;durP1;ratioP1;P1;durP2;ratioP2;P2;SDS_P1;SDS_P2;PMS_P1;PMS_P2;Temp;Humidity;BMP_temperature;BMP_pressure;BME280_temperature;BME280_humidity;BME280_pressure;Samples;Min_cycle;Max_cycle;Signal;HPM_P1;HPM_P2
2022/05/29 00:00:42;;;;;;;;;2.00;2.00;;;;;16.86;40.81;101323.69;2096582;28;47525;-59
2022/05/29 00:01:43;;;;;;;;;2.33;2.33;;;;;16.84;40.60;101315.72;2091104;28;47595;-59
2022/05/29 00:02:43;;;;;;;;;1.00;1.00;;;;;16.83;40.87;101322.00;2089482;28;47849;-59
2022/05/29 00:03:44;;;;;;;;;2.00;2.00;;;;;16.81;40.84;101317.63;2098845;28;47007;-60
2022/05/29 00:04:45;;;;;;;;;3.00;3.00;;;;;16.80;40.80;101322.13;2075251;28;46525;-59
2022/05/29 00:05:47;;;;;;;;;1.00;1.00;;;;;16.80;41.19;101321.25;2082261;27;47544;-58
2022/05/29 00:06:51;;;;;;;;;1.00;1.00;;;;;16.80;40.57;101316.78;2067269;28;46345;-61
2022/05/29 00:07:51;;;;;;;;;1.75;0.25;;;;;16.79;40.96;101315.03;2066999;28;47619;-58
2022/05/29 00:08:51;;;;;;;;;1.00;1.00;;;;;16.79;41.01;101315.03;2104046;28;48417;-61
2022/05/29 00:09:52;;;;;;;;;1.00;1.00;;;;;16.79;41.04;101308.78;2104059;27;47542;-61
2022/05/29 00:10:53;;;;;;;;;2.00;2.00;;;;;16.80;40.84;101310.53;2094997;28;47205;-59
2022/05/29 00:11:55;;;;;;;;;1.25;1.25;;;;;16.77;40.76;101309.72;2099418;28;48099;-58
2022/05/29 00:12:55;;;;;;;;;2.00;1.50;;;;;16.77;40.75;101309.72;2075984;27;47254;-57
2022/05/29 00:14:00;;;;;;;;;1.00;1.00;;;;;16.78;40.71;101310.59;2063222;28;47405;-58
2022/05/29 00:15:02;;;;;;;;;3.25;2.00;;;;;16.77;40.80;101303.50;2084740;28;47366;-58
2022/05/29 00:16:03;;;;;;;;;1.00;1.00;;;;;16.76;41.26;101307.94;2099185;28;47717;-59
2022/05/29 00:17:04;;;;;;;;;2.00;1.00;;;;;16.76;41.04;101310.63;2070122;28;47613;-61
2022/05/29 00:18:07;;;;;;;;;1.75;1.00;;;;;16.76;41.03;101304.38;2076931;28;47665;-58
2022/05/29 00:19:07;;;;;;;;;2.00;2.00;;;;;16.76;40.77;101313.31;2105525;27;47638;-58
2022/05/29 00:20:08;;;;;;;;;1.67;1.67;;;;;16.75;40.72;101303.53;2092275;28;47603;-58
2022/05/29 00:21:09;;;;;;;;;2.75;2.75;;;;;16.73;41.05;101305.38;2096167;27;47900;-57
2022/05/29 00:22:12;;;;;;;;;2.00;2.00;;;;;16.74;41.11;101306.25;2106381;27;47573;-59
2022/05/29 00:23:12;;;;;;;;;2.50;2.50;;;;;16.73;41.29;101301.84;2095449;27;47570;-58
2022/05/29 00:24:14;;;;;;;;;3.00;3.00;;;;;16.72;41.16;101305.44;2094856;27;47194;-59
2022/05/29 00:25:14;;;;;;;;;2.00;2.00;;;;;16.71;41.06;101299.22;2105264;28;48167;-59
2022/05/29 00:26:16;;;;;;;;;1.00;1.00;;;;;16.71;41.40;101290.31;2093000;27;47754;-59
2022/05/29 00:27:17;;;;;;;;;2.50;1.25;;;;;16.70;41.23;101304.63;2101321;27;47973;-58
2022/05/29 00:28:17;;;;;;;;;0.33;0.33;;;;;16.68;40.91;101302.03;2099966;28;48123;-59
2022/05/29 00:29:18;;;;;;;;;1.33;1.33;;;;;16.66;41.49;101302.97;2090215;28;45737;-59
2022/05/29 00:30:18;;;;;;;;;2.00;2.00;;;;;16.65;41.65;101296.75;2087469;28;48089;-59
2022/05/29 00:31:19;;;;;;;;;2.00;2.00;;;;;16.63;41.43;101295.03;2071188;28;48047;-59
2022/05/29 00:32:19;;;;;;;;;1.67;1.00;;;;;16.63;41.62;101297.72;2071499;28;47815;-59
2022/05/29 00:33:20;;;;;;;;;1.67;1.00;;;;;16.62;41.66;101299.53;2105520;28;47865;-59
2022/05/29 00:34:20;;;;;;;;;1.00;1.00;;;;;16.62;41.50;101298.66;2091212;27;47815;-59
2022/05/29 00:35:21;;;;;;;;;1.33;1.33;;;;;16.62;41.20;101295.97;2101155;27;47782;-59
2022/05/29 00:36:21;;;;;;;;;1.67;1.67;;;;;16.62;41.79;101294.16;2099060;28;47679;-59
2022/05/29 00:37:22;;;;;;;;;3.67;2.00;;;;;16.62;41.26;101291.47;2093046;27;47544;-57
2022/05/29 00:38:22;;;;;;;;;13.50;13.50;;;;;16.60;41.37;101293.34;2073060;27;47801;-59
2022/05/29 00:39:23;;;;;;;;;6.00;5.00;;;;;16.61;41.37;101288.88;2070497;28;47425;-59
2022/05/29 00:40:46;;;;;;;;;3.67;2.67;;;;;16.59;41.58;101293.41;2067960;28;47440;-58
2022/05/29 00:41:47;;;;;;;;;2.00;2.00;;;;;16.58;41.39;101292.53;2068171;28;47598;-58
2022/05/29 00:42:47;;;;;;;;;1.00;1.00;;;;;16.59;41.69;101293.41;2031644;28;47425;-59
2022/05/29 00:44:08;;;;;;;;;2.00;2.00;;;;;16.58;41.66;101294.34;2031031;29;47751;-59
2022/05/29 00:45:18;;;;;;;;;1.75;1.75;;;;;16.56;41.42;101290.84;2023037;29;47427;-59
2022/05/29 00:46:18;;;;;;;;;4.25;1.00;;;;;16.54;41.48;101290.91;2016548;29;46461;-58
2022/05/29 00:47:20;;;;;;;;;0.00;0.00;;;;;16.53;41.72;101294.53;2031926;28;48162;-59
2022/05/29 00:48:21;;;;;;;;;1.75;0.75;;;;;16.52;41.90;101289.22;2032264;28;47791;-59
2022/05/29 00:49:25;;;;;;;;;0.00;0.00;;;;;16.50;41.93;101291.94;2070350;28;47179;-58
2022/05/29 00:50:26;;;;;;;;;0.50;0.50;;;;;16.49;41.87;101292.88;2060101;28;46383;-57
2022/05/29 00:51:26;;;;;;;;;0.33;0.33;;;;;16.47;41.62;101289.38;2069898;28;48229;-57
2022/05/29 00:52:30;;;;;;;;;1.00;1.00;;;;;16.45;41.74;101294.78;2065562;28;48182;-59
2022/05/29 00:53:34;;;;;;;;;1.00;1.00;;;;;16.43;41.90;101295.78;2051610;28;47347;-59
2022/05/29 00:54:44;;;;;;;;;2.00;0.75;;;;;16.40;41.93;101295.91;2030406;29;48593;-59
2022/05/29 00:55:49;;;;;;;;;0.00;0.00;;;;;16.39;41.74;101291.50;2029382;29;47802;-59
2022/05/29 00:56:52;;;;;;;;;0.75;0.75;;;;;16.38;42.16;101287.03;2030412;29;47736;-60
2022/05/29 00:57:59;;;;;;;;;0.50;0.00;;;;;16.35;42.16;101290.69;2031549;28;47431;-59
2022/05/29 00:59:01;;;;;;;;;2.00;2.00;;;;;16.34;41.87;101291.63;2031163;28;47503;-59
2022/05/29 01:00:22;;;;;;;;;0.25;0.00;;;;;16.33;41.72;101289.88;2029423;28;48308;-60
2022/05/29 01:01:23;;;;;;;;;0.00;0.00;;;;;16.30;42.26;101292.69;2046263;28;47593;-58
2022/05/29 01:02:23;;;;;;;;;1.33;1.33;;;;;16.29;41.95;101284.72;2031050;29;47359;-59
2022/05/29 01:03:24;;;;;;;;;1.67;1.67;;;;;16.28;42.04;101282.97;2050933;28;48263;-58
2022/05/29 01:04:24;;;;;;;;;2.00;2.00;;;;;16.26;42.25;101285.69;2034358;28;47763;-57
2022/05/29 01:05:28;;;;;;;;;0.33;0.33;;;;;16.23;42.24;101285.78;2031641;28;48155;-59
2022/05/29 01:06:29;;;;;;;;;1.25;1.25;;;;;16.22;41.94;101288.53;2015268;28;47641;-57
2022/05/29 01:07:30;;;;;;;;;0.00;0.00;;;;;16.20;41.70;101288.59;2015903;29;47419;-60
2022/05/29 01:08:36;;;;;;;;;1.00;1.00;;;;;16.16;41.64;101290.50;2020550;29;46276;-60
2022/05/29 01:09:40;;;;;;;;;0.25;0.25;;;;;16.13;42.08;101282.59;2028689;28;48139;-58
2022/05/29 01:10:49;;;;;;;;;0.25;0.25;;;;;16.10;42.10;101282.66;2015499;29;48296;-59
2022/05/29 01:12:30;;;;;;;;;0.75;0.75;;;;;16.06;42.34;101289.06;2018853;29;47782;-59
2022/05/29 01:13:58;;;;;;;;;2.00;2.00;;;;;16.02;42.48;101282.09;2032522;28;47713;-59
2022/05/29 01:15:12;;;;;;;;;1.75;1.25;;;;;16.00;42.57;101289.28;2032941;29;48054;-57
2022/05/29 01:16:20;;;;;;;;;2.25;2.25;;;;;15.97;42.11;101294.75;2034053;28;47629;-57
2022/05/29 01:17:26;;;;;;;;;1.67;1.67;;;;;15.95;42.52;101285.03;2032034;29;47965;-59
2022/05/29 01:18:35;;;;;;;;;1.00;1.00;;;;;15.93;42.56;101285.06;2034032;28;47942;-57
2022/05/29 01:19:57;;;;;;;;;1.50;1.00;;;;;15.87;42.78;101278.13;2039313;28;47980;-58
2022/05/29 01:21:27;;;;;;;;;1.00;1.00;;;;;15.85;43.03;101276.44;2049112;28;47531;-58
2022/05/29 01:22:27;;;;;;;;;3.25;3.25;;;;;15.83;42.72;101273.81;2047537;28;47197;-59
2022/05/29 01:23:41;;;;;;;;;1.00;0.00;;;;;15.83;43.22;101267.59;2049132;28;46422;-60
2022/05/29 01:24:56;;;;;;;;;2.00;2.00;;;;;15.81;43.05;101264.97;2048336;28;47838;-61
2022/05/29 01:26:20;;;;;;;;;1.00;1.00;;;;;15.79;43.26;101276.66;2048310;28;47811;-60
2022/05/29 01:27:32;;;;;;;;;1.50;0.25;;;;;15.77;42.78;101270.50;2055177;28;46900;-59
2022/05/29 01:28:38;;;;;;;;;1.25;1.25;;;;;15.73;42.98;101269.69;2048379;28;47770;-60
2022/05/29 01:29:53;;;;;;;;;1.50;1.00;;;;;15.70;43.38;101271.59;2048222;28;47610;-60
2022/05/29 01:31:07;;;;;;;;;1.75;1.75;;;;;15.67;43.16;101272.59;2048665;28;47880;-59
2022/05/29 01:32:20;;;;;;;;;1.00;1.00;;;;;15.65;43.34;101263.75;2046606;28;47617;-59
2022/05/29 01:33:23;;;;;;;;;1.00;1.00;;;;;15.64;43.37;101269.16;2051225;28;47827;-58
2022/05/29 01:34:39;;;;;;;;;0.75;0.75;;;;;15.62;43.35;101261.16;2052498;28;47372;-57
2022/05/29 01:35:56;;;;;;;;;1.25;1.25;;;;;15.62;43.62;101260.28;2031499;29;48245;-60
2022/05/29 01:37:02;;;;;;;;;2.00;2.00;;;;;15.60;43.38;101263.00;2038749;28;47604;-59
2022/05/29 01:38:15;;;;;;;;;0.75;0.75;;;;;15.58;43.42;101270.19;2042710;28;47590;-59
2022/05/29 01:39:24;;;;;;;;;2.75;1.75;;;;;15.55;43.72;101264.94;2049170;28;47986;-59
2022/05/29 01:40:33;;;;;;;;;1.50;1.50;;;;;15.54;43.43;101264.06;2072226;28;47330;-60
2022/05/29 01:41:44;;;;;;;;;1.25;1.25;;;;;15.54;43.75;101268.56;2060008;28;46555;-58
2022/05/29 01:43:00;;;;;;;;;1.00;1.00;;;;;15.53;43.44;101258.78;2057051;28;47879;-60
2022/05/29 01:44:22;;;;;;;;;1.75;1.75;;;;;15.50;43.99;101264.19;2034154;28;47216;-57
2022/05/29 01:45:31;;;;;;;;;2.25;2.25;;;;;15.50;43.66;101265.09;2030984;28;48282;-61
2022/05/29 01:46:34;;;;;;;;;1.75;1.75;;;;;15.48;43.78;101260.72;2025287;28;47722;-57
2022/05/29 01:47:43;;;;;;;;;1.25;1.25;;;;;15.48;44.16;101260.72;2036133;28;47301;-58
2022/05/29 01:49:13;;;;;;;;;1.00;1.00;;;;;15.45;44.06;101256.34;2020621;28;47710;-57
2022/05/29 01:50:26;;;;;;;;;1.00;1.00;;;;;15.42;44.30;101258.25;2009774;28;47339;-58
2022/05/29 01:51:38;;;;;;;;;1.75;0.75;;;;;15.42;44.32;101250.22;2059886;28;47901;-56
2022/05/29 01:53:02;;;;;;;;;2.00;2.00;;;;;15.40;44.30;101258.31;2088196;28;47799;-58
2022/05/29 01:54:27;;;;;;;;;1.75;1.75;;;;;15.43;44.28;101260.00;2060169;28;47362;-59
2022/05/29 01:55:40;;;;;;;;;1.75;0.75;;;;;15.42;44.50;101258.25;2060502;28;47664;-59
2022/05/29 01:56:46;;;;;;;;;2.75;2.75;;;;;15.40;44.37;101258.31;2061434;28;47544;-59
2022/05/29 01:57:52;;;;;;;;;1.00;1.00;;;;;15.37;44.60;101258.38;2068803;28;47484;-57
2022/05/29 01:58:57;;;;;;;;;2.25;1.75;;;;;15.36;44.11;101247.75;2081624;28;47831;-58
2022/05/29 02:00:06;;;;;;;;;1.75;1.75;;;;;15.32;44.21;101255.88;2091078;28;47520;-58
2022/05/29 02:01:10;;;;;;;;;1.50;1.50;;;;;15.30;44.39;101256.84;2065078;28;46408;-58
2022/05/29 02:02:16;;;;;;;;;0.75;0.75;;;;;15.27;44.41;101249.81;2076101;28;48029;-58
2022/05/29 02:03:21;;;;;;;;;1.75;1.75;;;;;15.24;44.61;101257.03;2056799;28;48098;-60
2022/05/29 02:04:25;;;;;;;;;3.50;2.00;;;;;15.23;44.60;101257.97;2056942;28;47172;-59
2022/05/29 02:05:30;;;;;;;;;2.25;2.25;;;;;15.23;44.63;101258.84;2073810;28;48697;-58
2022/05/29 02:08:08;;;;;;;;;1.00;1.00;;;;;15.22;44.69;101251.75;2062864;28;45625;-57
2022/05/29 02:09:09;;;;;;;;;2.50;2.00;;;;;15.20;45.14;101250.06;2090270;28;48279;-60
2022/05/29 02:10:14;;;;;;;;;1.75;0.75;;;;;15.18;45.27;101258.13;2077044;28;47904;-55
2022/05/29 02:11:22;;;;;;;;;1.00;1.00;;;;;15.19;45.11;101251.84;2053852;28;47611;-59
2022/05/29 02:12:26;;;;;;;;;0.50;0.50;;;;;15.20;45.18;101247.38;2064511;28;47743;-58
2022/05/29 02:13:57;;;;;;;;;1.75;1.75;;;;;15.21;45.35;101254.47;2049180;28;47665;-59
2022/05/29 02:15:06;;;;;;;;;2.25;2.25;;;;;15.22;44.99;101251.75;2065091;28;47848;-59
2022/05/29 02:16:42;;;;;;;;;4.25;2.50;;;;;15.24;45.45;101249.00;2065497;28;47323;-57
2022/05/29 02:17:50;;;;;;;;;3.25;2.25;;;;;15.23;45.30;101248.13;2065674;28;47680;-59
2022/05/29 02:19:00;;;;;;;;;3.75;2.00;;;;;15.22;45.48;101249.06;2065953;28;47822;-59
2022/05/29 02:20:07;;;;;;;;;1.00;1.00;;;;;15.22;45.15;101245.53;2065392;28;47601;-59
2022/05/29 02:21:29;;;;;;;;;1.75;1.75;;;;;15.23;45.48;101239.25;2065466;28;47791;-59
2022/05/29 02:22:32;;;;;;;;;3.25;2.75;;;;;15.22;45.34;101238.38;2066000;28;47701;-58
2022/05/29 02:23:38;;;;;;;;;1.00;1.00;;;;;15.21;45.96;101243.78;2066236;28;47503;-59
2022/05/29 02:24:44;;;;;;;;;2.50;2.00;;;;;15.21;45.12;101247.31;2072116;28;47700;-59
2022/05/29 02:25:45;;;;;;;;;1.75;1.75;;;;;15.20;45.53;101242.03;2082629;28;48095;-60
2022/05/29 02:26:55;;;;;;;;;1.50;1.50;;;;;15.19;45.32;101240.28;2081836;28;47540;-55
2022/05/29 02:28:04;;;;;;;;;2.25;1.25;;;;;15.18;45.46;101234.06;2081906;28;47788;-57
2022/05/29 02:29:09;;;;;;;;;1.75;1.25;;;;;15.17;45.59;101235.00;2082250;28;47563;-57
2022/05/29 02:30:10;;;;;;;;;1.50;1.50;;;;;15.18;45.79;101233.19;2082027;28;47874;-60
2022/05/29 02:31:30;;;;;;;;;1.33;1.33;;;;;15.18;45.41;101238.53;2072080;28;47940;-59
2022/05/29 02:32:54;;;;;;;;;2.00;2.00;;;;;15.17;45.50;101236.78;2077054;28;47417;-59
2022/05/29 02:34:13;;;;;;;;;2.50;2.50;;;;;15.17;45.75;101236.78;2088375;28;47809;-60
2022/05/29 02:35:35;;;;;;;;;1.75;1.75;;;;;15.16;45.44;101237.72;2081242;28;47774;-58
2022/05/29 02:36:48;;;;;;;;;2.00;2.00;;;;;15.16;45.61;101235.91;2072956;28;47279;-60
2022/05/29 02:38:09;;;;;;;;;1.75;1.75;;;;;15.16;45.67;101230.56;2080288;28;47305;-60
2022/05/29 02:39:19;;;;;;;;;2.75;2.50;;;;;15.16;45.63;101232.38;2081203;28;46995;-60
2022/05/29 02:40:52;;;;;;;;;2.50;1.25;;;;;15.13;45.77;101236.03;2081627;28;47605;-58
2022/05/29 02:42:02;;;;;;;;;2.00;2.00;;;;;15.13;45.64;101227.13;2082088;28;47426;-58
2022/05/29 02:43:27;;;;;;;;;1.50;1.50;;;;;15.12;45.74;101228.03;2074207;28;47407;-57
2022/05/29 02:44:55;;;;;;;;;2.00;2.00;;;;;15.12;46.22;101234.28;2081301;28;47853;-58
2022/05/29 02:46:15;;;;;;;;;2.00;2.00;;;;;15.10;45.73;101224.53;2081982;28;47592;-58
2022/05/29 02:47:28;;;;;;;;;2.00;2.00;;;;;15.09;46.04;101230.81;2085306;28;47855;-58
2022/05/29 02:48:38;;;;;;;;;1.75;1.75;;;;;15.08;46.24;101226.38;2082144;28;48103;-59
2022/05/29 02:49:48;;;;;;;;;2.50;2.50;;;;;15.07;46.17;101224.63;2081811;28;47420;-58
2022/05/29 02:51:07;;;;;;;;;4.00;3.00;;;;;15.06;46.35;101229.09;2081530;28;45129;-58
2022/05/29 02:52:13;;;;;;;;;2.00;2.00;;;;;15.07;46.19;101229.97;2072707;28;48009;-59
2022/05/29 02:53:16;;;;;;;;;5.00;4.00;;;;;15.06;46.56;101231.78;2065248;28;48432;-59
2022/05/29 02:54:25;;;;;;;;;3.00;2.50;;;;;15.06;46.08;101231.78;2107861;27;47791;-59
2022/05/29 02:55:26;;;;;;;;;2.75;2.75;;;;;15.05;45.93;101223.81;2100071;27;47551;-57
2022/05/29 02:56:26;;;;;;;;;1.33;1.33;;;;;15.04;46.35;101232.75;2099416;27;47297;-59
2022/05/29 02:57:27;;;;;;;;;2.00;2.00;;;;;15.05;46.11;101227.38;2105377;28;48158;-56
2022/05/29 02:58:31;;;;;;;;;3.00;3.00;;;;;15.05;46.32;101227.38;2100498;27;47303;-60
2022/05/29 02:59:38;;;;;;;;;1.50;1.50;;;;;15.04;46.06;101228.28;2106169;27;47516;-56
2022/05/29 03:01:06;;;;;;;;;2.00;2.00;;;;;15.01;45.90;101226.59;2104871;28;46907;-57
2022/05/29 03:02:10;;;;;;;;;3.00;3.00;;;;;15.00;46.44;101226.66;2072849;27;48604;-59
2022/05/29 03:03:29;;;;;;;;;3.00;3.00;;;;;14.96;46.31;101225.84;2078867;28;48054;-60
2022/05/29 03:04:44;;;;;;;;;1.75;1.75;;;;;14.92;46.83;101228.69;2099869;27;47797;-59
2022/05/29 03:06:11;;;;;;;;;2.25;2.25;;;;;14.90;46.56;101223.38;2068199;28;47290;-60
2022/05/29 03:07:23;;;;;;;;;3.75;2.25;;;;;14.87;46.72;101218.16;2057490;28;48470;-60
2022/05/29 03:08:38;;;;;;;;;3.00;3.00;;;;;14.87;46.51;101219.94;2071067;28;48007;-58
2022/05/29 03:09:44;;;;;;;;;3.25;3.25;;;;;14.85;46.65;101219.09;2076602;27;47578;-59
2022/05/29 03:11:11;;;;;;;;;2.00;2.00;;;;;14.83;46.83;101219.13;2068897;28;47972;-60
2022/05/29 03:12:36;;;;;;;;;2.50;2.50;;;;;14.82;46.97;101225.41;2047285;28;47601;-59
2022/05/29 03:13:48;;;;;;;;;3.00;3.00;;;;;14.82;46.53;101224.53;2057316;28;47535;-59
2022/05/29 03:15:28;;;;;;;;;2.25;2.25;;;;;14.80;46.83;101221.03;2076458;28;47786;-58
2022/05/29 03:16:37;;;;;;;;;2.00;2.00;;;;;14.79;47.01;101221.97;2089476;28;47547;-59
2022/05/29 03:17:47;;;;;;;;;4.00;4.00;;;;;14.77;46.95;101218.47;2096034;28;46754;-58
2022/05/29 03:19:00;;;;;;;;;2.00;2.00;;;;;14.77;46.88;101224.69;2046774;28;47901;-60
2022/05/29 03:20:25;;;;;;;;;3.00;3.00;;;;;14.75;46.94;101223.88;2078410;28;46880;-57
2022/05/29 03:21:41;;;;;;;;;3.25;3.25;;;;;14.75;47.13;101223.00;2089578;28;47474;-59
2022/05/29 03:22:59;;;;;;;;;2.25;2.25;;;;;14.75;47.01;101223.00;2087495;28;47469;-59
2022/05/29 03:24:41;;;;;;;;;2.75;2.75;;;;;14.75;47.09;101221.19;2038057;28;45132;-57
2022/05/29 03:25:46;;;;;;;;;2.50;2.50;;;;;14.73;47.04;101213.19;2049025;28;48065;-59
2022/05/29 03:27:09;;;;;;;;;3.00;3.00;;;;;14.69;47.20;101218.69;2092972;28;47821;-60
2022/05/29 03:28:41;;;;;;;;;3.25;2.25;;;;;14.66;47.05;101213.44;2095074;28;47344;-59
2022/05/29 03:30:09;;;;;;;;;3.00;3.00;;;;;14.64;47.52;101215.31;2063346;28;47797;-57
2022/05/29 03:31:17;;;;;;;;;2.00;2.00;;;;;14.63;47.06;101222.44;2063002;28;47491;-57
2022/05/29 03:32:20;;;;;;;;;1.75;1.75;;;;;14.62;47.50;101218.03;2063306;28;48303;-59
2022/05/29 03:33:20;;;;;;;;;2.50;2.50;;;;;14.62;47.58;101223.38;2060399;28;47634;-58
2022/05/29 03:34:21;;;;;;;;;2.33;2.33;;;;;14.62;47.50;101222.50;2063608;28;45965;-61
2022/05/29 03:35:28;;;;;;;;;2.25;2.25;;;;;14.59;47.53;101220.75;2063193;28;47686;-63
2022/05/29 03:36:29;;;;;;;;;3.25;2.50;;;;;14.58;47.15;101221.69;2063375;28;47655;-60
2022/05/29 03:37:29;;;;;;;;;3.00;3.00;;;;;14.58;47.37;101218.16;2062564;28;48043;-58
2022/05/29 03:38:30;;;;;;;;;4.33;4.33;;;;;14.57;47.27;101219.06;2063359;28;47830;-58
2022/05/29 03:39:31;;;;;;;;;3.00;2.67;;;;;14.56;47.67;101214.66;2062681;28;47907;-57
2022/05/29 03:40:33;;;;;;;;;2.33;2.33;;;;;14.55;47.56;101211.09;2062947;28;47951;-58
2022/05/29 03:41:43;;;;;;;;;2.00;1.75;;;;;14.54;47.33;101211.16;2062720;28;47942;-60
2022/05/29 03:42:44;;;;;;;;;2.00;2.00;;;;;14.53;47.32;101206.75;2063205;28;47560;-58
2022/05/29 03:43:44;;;;;;;;;3.00;3.00;;;;;14.51;47.86;101209.47;2062585;28;47889;-58
2022/05/29 03:44:44;;;;;;;;;3.00;3.00;;;;;14.51;47.66;101211.25;2063273;28;47154;-59
2022/05/29 03:45:45;;;;;;;;;3.00;3.00;;;;;14.49;47.65;101213.97;2062881;28;47891;-58
2022/05/29 03:46:45;;;;;;;;;3.00;3.00;;;;;14.48;47.64;101204.19;2063256;28;47844;-59
2022/05/29 03:47:46;;;;;;;;;3.00;3.00;;;;;14.48;47.60;101212.19;2062997;28;46407;-59
2022/05/29 03:48:46;;;;;;;;;2.33;2.33;;;;;14.48;47.65;101208.66;2062669;28;47748;-58
2022/05/29 03:49:47;;;;;;;;;3.67;2.33;;;;;14.47;47.95;101209.56;2062879;28;47987;-59
2022/05/29 03:50:47;;;;;;;;;2.00;2.00;;;;;14.46;47.90;101208.69;2063197;28;47291;-59
2022/05/29 03:51:48;;;;;;;;;3.00;3.00;;;;;14.46;48.04;101205.16;2070869;28;47648;-58
2022/05/29 03:52:49;;;;;;;;;3.75;3.75;;;;;14.43;47.67;101209.63;2063104;28;47840;-56
2022/05/29 03:53:49;;;;;;;;;2.67;2.67;;;;;14.43;48.06;101212.31;2054125;28;47850;-58
2022/05/29 03:54:52;;;;;;;;;3.00;3.00;;;;;14.42;47.94;101207.03;2055235;28;46298;-59
2022/05/29 03:55:52;;;;;;;;;2.25;2.25;;;;;14.41;48.32;101214.16;2063042;28;47713;-59
2022/05/29 03:56:52;;;;;;;;;2.67;2.67;;;;;14.40;48.01;101206.19;2064640;28;46887;-59
2022/05/29 03:57:54;;;;;;;;;3.00;3.00;;;;;14.37;48.14;101211.63;2071197;28;47692;-59
2022/05/29 03:58:54;;;;;;;;;4.00;3.00;;;;;14.36;48.36;101204.53;2065935;28;46563;-59
2022/05/29 03:59:55;;;;;;;;;2.33;2.00;;;;;14.35;48.10;101208.97;2062991;28;47811;-59
2022/05/29 04:00:56;;;;;;;;;3.00;1.33;;;;;14.36;48.02;101207.22;2063099;28;47782;-58
2022/05/29 04:01:56;;;;;;;;;3.33;3.00;;;;;14.36;48.18;101205.41;2062466;28;47771;-59
2022/05/29 04:02:57;;;;;;;;;3.00;3.00;;;;;14.37;48.46;101200.94;2063013;28;48027;-59
2022/05/29 04:03:58;;;;;;;;;1.33;1.33;;;;;14.37;48.26;101208.97;2062470;28;47606;-59
2022/05/29 04:04:58;;;;;;;;;2.75;2.75;;;;;14.35;48.52;101203.63;2064709;28;47796;-60
2022/05/29 04:05:59;;;;;;;;;3.00;3.00;;;;;14.35;48.36;101208.09;2069599;28;47867;-60
2022/05/29 04:06:59;;;;;;;;;3.00;3.00;;;;;14.37;48.31;101206.28;2062806;28;48076;-59
2022/05/29 04:12:03;;;;;;;;;4.00;4.00;;;;;14.34;48.32;101207.22;2053293;28;47540;-59
2022/05/29 04:13:04;;;;;;;;;3.00;2.25;;;;;14.34;48.34;101209.91;2062811;28;47532;-59
2022/05/29 04:14:06;;;;;;;;;3.00;3.00;;;;;14.36;48.36;101207.22;2062609;28;47569;-59
2022/05/29 04:15:07;;;;;;;;;2.25;2.25;;;;;14.35;48.29;101208.09;2089760;28;48195;-59
2022/05/29 04:16:07;;;;;;;;;3.00;2.67;;;;;14.32;48.58;101206.41;2097469;27;47961;-59
2022/05/29 04:17:09;;;;;;;;;5.00;3.00;;;;;14.32;48.54;101205.53;2094011;28;46195;-59
2022/05/29 04:18:10;;;;;;;;;2.50;2.50;;;;;14.31;48.63;101207.34;2084926;28;47944;-59
2022/05/29 04:19:10;;;;;;;;;3.00;3.00;;;;;14.32;48.59;101202.88;2102980;27;47941;-59
2022/05/29 04:20:11;;;;;;;;;3.00;2.00;;;;;14.32;48.50;101203.75;2096798;28;46629;-60
2022/05/29 04:21:12;;;;;;;;;3.00;2.00;;;;;14.33;48.62;101208.16;2093847;27;47121;-58
2022/05/29 04:22:16;;;;;;;;;3.00;3.00;;;;;14.35;48.58;101202.75;2105252;27;47322;-60
2022/05/29 04:23:16;;;;;;;;;4.25;3.00;;;;;14.35;48.55;101203.63;2094341;27;47058;-60
2022/05/29 04:24:19;;;;;;;;;3.00;3.00;;;;;14.35;48.50;101205.44;2094431;27;48086;-57
2022/05/29 04:25:19;;;;;;;;;2.75;2.25;;;;;14.35;48.49;101210.78;2105031;27;47517;-59
2022/05/29 04:26:20;;;;;;;;;2.33;2.33;;;;;14.35;48.54;101210.78;2094493;27;47494;-60
2022/05/29 04:27:20;;;;;;;;;3.67;3.33;;;;;14.35;48.69;101205.44;2100088;27;47449;-60
2022/05/29 04:28:22;;;;;;;;;2.67;2.67;;;;;14.35;48.65;101211.66;2091885;28;47840;-59
2022/05/29 04:29:23;;;;;;;;;2.00;1.50;;;;;14.35;48.49;101211.66;2086617;28;47666;-58
2022/05/29 04:30:23;;;;;;;;;3.00;3.00;;;;;14.36;48.42;101208.09;2105332;27;47508;-59
2022/05/29 04:31:23;;;;;;;;;3.33;3.00;;;;;14.36;48.36;101209.88;2097309;27;47567;-60
2022/05/29 04:33:43;;;;;;;;;2.00;2.00;;;;;14.36;48.77;101210.75;2070637;28;48229;-58
2022/05/29 04:34:43;;;;;;;;;1.00;1.00;;;;;14.36;48.93;101207.22;2099828;28;47552;-58
2022/05/29 04:35:48;;;;;;;;;4.00;4.00;;;;;14.35;48.82;101211.66;2098416;27;47833;-57
2022/05/29 04:36:49;;;;;;;;;3.25;3.25;;;;;14.34;48.84;101203.69;2105054;27;47994;-57
2022/05/29 04:37:49;;;;;;;;;3.00;3.00;;;;;14.33;48.63;101208.16;2088523;27;48093;-59
2022/05/29 04:38:51;;;;;;;;;3.33;3.33;;;;;14.31;48.94;101201.13;2069744;28;48240;-60
2022/05/29 04:39:51;;;;;;;;;3.25;3.25;;;;;14.31;48.86;101201.13;2104996;27;47755;-59
2022/05/29 04:40:52;;;;;;;;;5.33;4.33;;;;;14.29;48.58;101206.50;2080851;27;47123;-59
2022/05/29 04:41:52;;;;;;;;;4.00;4.00;;;;;14.28;48.79;101198.53;2069108;27;47437;-60
2022/05/29 04:42:53;;;;;;;;;3.00;3.00;;;;;14.27;49.09;101200.34;2103201;28;47659;-57
2022/05/29 04:43:53;;;;;;;;;3.00;2.00;;;;;14.26;48.65;101205.72;2098384;28;48190;-59
2022/05/29 04:44:54;;;;;;;;;3.00;3.00;;;;;14.23;48.91;101208.47;2105414;27;47094;-59
2022/05/29 04:45:55;;;;;;;;;2.67;2.67;;;;;14.22;48.85;101212.94;2100193;27;46513;-59
2022/05/29 04:46:58;;;;;;;;;2.25;2.25;;;;;14.19;49.16;101207.69;2097752;27;47682;-60
2022/05/29 04:47:59;;;;;;;;;4.25;4.00;;;;;14.19;49.14;101218.34;2079350;28;47816;-61
2022/05/29 04:48:59;;;;;;;;;3.00;3.00;;;;;14.20;48.96;101212.09;2079819;28;48159;-59
2022/05/29 04:49:59;;;;;;;;;3.00;3.00;;;;;14.20;48.90;101212.09;2100184;28;47605;-59
2022/05/29 04:51:02;;;;;;;;;2.00;2.00;;;;;14.20;49.10;101209.44;2105037;27;47554;-60
2022/05/29 04:52:09;;;;;;;;;3.00;3.00;;;;;14.22;48.95;101212.94;2083244;28;46004;-59
2022/05/29 04:53:10;;;;;;;;;3.50;2.25;;;;;14.22;49.26;101204.91;2059883;28;48064;-60
2022/05/29 04:54:11;;;;;;;;;3.25;3.25;;;;;14.24;49.03;101205.78;2094023;28;48121;-60
2022/05/29 04:55:11;;;;;;;;;3.00;3.00;;;;;14.25;49.27;101201.31;2099270;27;47278;-58
2022/05/29 04:56:12;;;;;;;;;2.67;2.67;;;;;14.24;49.29;101197.78;2104809;27;48373;-59
2022/05/29 04:57:12;;;;;;;;;3.00;3.00;;;;;14.25;49.46;101212.00;2072483;27;47415;-59
2022/05/29 04:58:13;;;;;;;;;3.67;3.67;;;;;14.26;49.17;101200.38;2074378;28;47543;-60
2022/05/29 04:59:13;;;;;;;;;3.33;3.33;;;;;14.27;49.10;101205.69;2105286;27;47935;-59
2022/05/29 05:00:15;;;;;;;;;3.33;3.33;;;;;14.28;49.07;101198.53;2077343;27;47634;-56
2022/05/29 05:01:15;;;;;;;;;2.00;2.00;;;;;14.29;49.14;101202.97;2053702;28;47518;-59
2022/05/29 05:02:16;;;;;;;;;4.67;3.33;;;;;14.31;49.29;101206.47;2053946;28;47952;-58
2022/05/29 05:03:16;;;;;;;;;3.33;3.33;;;;;14.30;49.04;101205.59;2054072;28;47324;-59
2022/05/29 05:04:17;;;;;;;;;3.00;3.00;;;;;14.29;49.15;101200.28;2054439;28;47468;-60
2022/05/29 05:05:18;;;;;;;;;2.67;2.67;;;;;14.30;49.36;101197.56;2054372;28;47467;-59
2022/05/29 05:06:18;;;;;;;;;4.00;3.00;;;;;14.32;49.43;101216.22;2056011;28;48158;-57
2022/05/29 05:07:19;;;;;;;;;4.00;4.00;;;;;14.32;49.61;101203.75;2055305;28;48022;-59
2022/05/29 05:08:19;;;;;;;;;3.67;2.67;;;;;14.31;49.35;101201.13;2054235;28;47784;-60
2022/05/29 05:09:19;;;;;;;;;2.00;2.00;;;;;14.29;49.19;101206.50;2053881;28;47389;-60
2022/05/29 05:10:20;;;;;;;;;3.67;3.00;;;;;14.27;49.40;101197.66;2053992;28;46323;-59
2022/05/29 05:11:20;;;;;;;;;3.33;3.00;;;;;14.26;49.35;101198.59;2053793;28;47014;-59
2022/05/29 05:12:21;;;;;;;;;3.00;3.00;;;;;14.26;49.16;101209.28;2054218;28;48065;-59
2022/05/29 05:13:22;;;;;;;;;5.33;4.00;;;;;14.25;49.35;101198.66;2056840;28;48002;-59
2022/05/29 05:14:24;;;;;;;;;3.00;3.00;;;;;14.25;49.28;101203.97;2066832;28;48481;-59
2022/05/29 05:15:25;;;;;;;;;2.00;2.00;;;;;14.26;49.50;101209.28;2061141;28;46298;-57
2022/05/29 05:16:26;;;;;;;;;2.67;2.67;;;;;14.27;49.43;101203.00;2053107;28;47770;-59